sensor_id;sensor_type;location;lat;lon;timestamp;P1;durP1;ratioP1;P2;durP2;ratioP2
68479;SDS011;55469;48.934;12.050;2023-07-08T00:02:17;3.10;;;2.70;;
68479;SDS011;55469;48.934;12.050;2023-07-08T00:04:43;4.47;;;3.38;;
68479;SDS011;55469;48.934;12.050;2023-07-08T00:07:10;3.97;;;3.10;;
68479;SDS011;55469;48.934;12.050;2023-07-08T00:09:38;3.40;;;2.55;;
68479;SDS011;55469;48.934;12.050;2023-07-08T00:12:12;3.47;;;2.88;;
68479;SDS011;55469;48.934;12.050;2023-07-08T00:14:38;3.85;;;3.00;;
68479;SDS011;55469;48.934;12.050;2023-07-08T00:17:08;3.60;;;3.00;;
68479;SDS011;55469;48.934;12.050;2023-07-08T00:19:37;3.35;;;3.05;;
68479;SDS011;55469;48.934;12.050;2023-07-08T00:22:07;3.55;;;2.60;;
68479;SDS011;55469;48.934;12.050;2023-07-08T00:24:37;3.47;;;3.00;;
68479;SDS011;55469;48.934;12.050;2023-07-08T00:27:04;3.47;;;2.85;;
68479;SDS011;55469;48.934;12.050;2023-07-08T00:29:32;3.75;;;3.05;;
68479;SDS011;55469;48.934;12.050;2023-07-08T00:31:58;4.28;;;3.10;;
68479;SDS011;55469;48.934;12.050;2023-07-08T00:34:23;4.03;;;3.30;;
68479;SDS011;55469;48.934;12.050;2023-07-08T00:36:49;3.78;;;2.90;;
68479;SDS011;55469;48.934;12.050;2023-07-08T00:39:15;4.68;;;3.13;;
68479;SDS011;55469;48.934;12.050;2023-07-08T00:41:40;3.55;;;2.92;;
68479;SDS011;55469;48.934;12.050;2023-07-08T00:44:10;3.85;;;2.97;;
68479;SDS011;55469;48.934;12.050;2023-07-08T00:46:40;3.40;;;2.90;;
68479;SDS011;55469;48.934;12.050;2023-07-08T00:49:23;3.95;;;3.05;;
68479;SDS011;55469;48.934;12.050;2023-07-08T00:52:14;2.90;;;2.60;;
68479;SDS011;55469;48.934;12.050;2023-07-08T00:54:53;3.40;;;2.80;;
68479;SDS011;55469;48.934;12.050;2023-07-08T00:57:39;4.18;;;2.92;;
68479;SDS011;55469;48.934;12.050;2023-07-08T01:00:12;3.90;;;3.10;;
68479;SDS011;55469;48.934;12.050;2023-07-08T01:02:52;3.63;;;2.78;;
68479;SDS011;55469;48.934;12.050;2023-07-08T01:05:22;2.80;;;2.53;;
68479;SDS011;55469;48.934;12.050;2023-07-08T01:07:51;3.78;;;3.00;;
68479;SDS011;55469;48.934;12.050;2023-07-08T01:10:26;4.10;;;3.25;;
68479;SDS011;55469;48.934;12.050;2023-07-08T01:13:00;3.88;;;3.03;;
68479;SDS011;55469;48.934;12.050;2023-07-08T01:15:33;3.10;;;2.70;;
68479;SDS011;55469;48.934;12.050;2023-07-08T01:20:34;3.83;;;3.00;;
68479;SDS011;55469;48.934;12.050;2023-07-08T01:23:00;4.43;;;2.95;;
68479;SDS011;55469;48.934;12.050;2023-07-08T01:25:25;5.10;;;3.10;;
68479;SDS011;55469;48.934;12.050;2023-07-08T01:27:53;4.45;;;3.28;;
68479;SDS011;55469;48.934;12.050;2023-07-08T01:30:21;4.43;;;3.10;;
68479;SDS011;55469;48.934;12.050;2023-07-08T01:32:51;3.72;;;2.72;;
68479;SDS011;55469;48.934;12.050;2023-07-08T01:35:22;3.45;;;2.85;;
68479;SDS011;55469;48.934;12.050;2023-07-08T01:37:50;5.30;;;3.20;;
68479;SDS011;55469;48.934;12.050;2023-07-08T01:42:57;3.80;;;2.85;;
68479;SDS011;55469;48.934;12.050;2023-07-08T01:45:25;3.60;;;2.90;;
68479;SDS011;55469;48.934;12.050;2023-07-08T01:48:05;4.57;;;3.10;;
68479;SDS011;55469;48.934;12.050;2023-07-08T01:50:46;4.45;;;3.50;;
68479;SDS011;55469;48.934;12.050;2023-07-08T01:53:36;4.07;;;3.00;;
68479;SDS011;55469;48.934;12.050;2023-07-08T01:56:05;3.97;;;3.13;;
68479;SDS011;55469;48.934;12.050;2023-07-08T01:58:32;3.80;;;2.88;;
68479;SDS011;55469;48.934;12.050;2023-07-08T02:00:59;3.63;;;3.05;;
68479;SDS011;55469;48.934;12.050;2023-07-08T02:03:25;4.32;;;3.28;;
68479;SDS011;55469;48.934;12.050;2023-07-08T02:05:51;4.78;;;3.40;;
68479;SDS011;55469;48.934;12.050;2023-07-08T02:08:17;4.25;;;3.03;;
68479;SDS011;55469;48.934;12.050;2023-07-08T02:10:44;4.20;;;3.10;;
68479;SDS011;55469;48.934;12.050;2023-07-08T02:13:20;4.13;;;2.97;;
68479;SDS011;55469;48.934;12.050;2023-07-08T02:15:46;4.10;;;3.05;;
68479;SDS011;55469;48.934;12.050;2023-07-08T02:18:13;3.92;;;2.60;;
68479;SDS011;55469;48.934;12.050;2023-07-08T02:20:38;3.30;;;2.90;;
68479;SDS011;55469;48.934;12.050;2023-07-08T02:23:04;4.03;;;2.95;;
68479;SDS011;55469;48.934;12.050;2023-07-08T02:25:30;3.65;;;3.00;;
68479;SDS011;55469;48.934;12.050;2023-07-08T02:27:56;5.03;;;3.47;;
68479;SDS011;55469;48.934;12.050;2023-07-08T02:30:22;4.90;;;3.10;;
68479;SDS011;55469;48.934;12.050;2023-07-08T02:32:48;3.83;;;3.00;;
68479;SDS011;55469;48.934;12.050;2023-07-08T02:35:22;4.38;;;3.20;;
68479;SDS011;55469;48.934;12.050;2023-07-08T02:37:55;4.88;;;3.20;;
68479;SDS011;55469;48.934;12.050;2023-07-08T02:40:22;3.92;;;3.10;;
68479;SDS011;55469;48.934;12.050;2023-07-08T02:42:49;3.78;;;3.15;;
68479;SDS011;55469;48.934;12.050;2023-07-08T02:45:15;4.72;;;3.00;;
68479;SDS011;55469;48.934;12.050;2023-07-08T02:47:42;3.67;;;2.83;;
68479;SDS011;55469;48.934;12.050;2023-07-08T02:53:24;4.18;;;3.28;;
68479;SDS011;55469;48.934;12.050;2023-07-08T02:55:50;3.80;;;2.97;;
68479;SDS011;55469;48.934;12.050;2023-07-08T02:58:15;5.15;;;3.30;;
68479;SDS011;55469;48.934;12.050;2023-07-08T03:00:41;3.80;;;3.20;;
68479;SDS011;55469;48.934;12.050;2023-07-08T03:03:07;4.22;;;3.25;;
68479;SDS011;55469;48.934;12.050;2023-07-08T03:09:13;3.42;;;2.95;;
68479;SDS011;55469;48.934;12.050;2023-07-08T03:11:39;4.68;;;3.20;;
68479;SDS011;55469;48.934;12.050;2023-07-08T03:14:05;4.47;;;3.33;;
68479;SDS011;55469;48.934;12.050;2023-07-08T03:16:31;3.92;;;2.90;;
68479;SDS011;55469;48.934;12.050;2023-07-08T03:18:57;4.57;;;3.42;;
68479;SDS011;55469;48.934;12.050;2023-07-08T03:25:04;3.85;;;3.17;;
68479;SDS011;55469;48.934;12.050;2023-07-08T03:27:30;3.95;;;3.22;;
68479;SDS011;55469;48.934;12.050;2023-07-08T03:29:56;4.38;;;3.00;;
68479;SDS011;55469;48.934;12.050;2023-07-08T03:35:25;3.90;;;3.00;;
68479;SDS011;55469;48.934;12.050;2023-07-08T03:37:51;3.75;;;3.20;;
68479;SDS011;55469;48.934;12.050;2023-07-08T03:40:24;4.43;;;3.20;;
68479;SDS011;55469;48.934;12.050;2023-07-08T03:42:50;3.92;;;3.20;;
68479;SDS011;55469;48.934;12.050;2023-07-08T03:45:15;3.45;;;2.97;;
68479;SDS011;55469;48.934;12.050;2023-07-08T03:47:41;3.72;;;3.17;;
68479;SDS011;55469;48.934;12.050;2023-07-08T03:50:19;4.43;;;3.28;;
68479;SDS011;55469;48.934;12.050;2023-07-08T03:52:50;3.55;;;3.03;;
68479;SDS011;55469;48.934;12.050;2023-07-08T03:55:18;4.75;;;3.40;;
68479;SDS011;55469;48.934;12.050;2023-07-08T03:57:44;4.75;;;3.22;;
68479;SDS011;55469;48.934;12.050;2023-07-08T04:00:10;4.68;;;3.20;;
68479;SDS011;55469;48.934;12.050;2023-07-08T04:02:38;4.13;;;3.17;;
68479;SDS011;55469;48.934;12.050;2023-07-08T04:05:05;4.60;;;3.58;;
68479;SDS011;55469;48.934;12.050;2023-07-08T04:07:31;4.68;;;3.35;;
68479;SDS011;55469;48.934;12.050;2023-07-08T04:09:58;4.47;;;3.10;;
68479;SDS011;55469;48.934;12.050;2023-07-08T04:12:30;4.15;;;3.00;;
68479;SDS011;55469;48.934;12.050;2023-07-08T04:14:56;5.38;;;3.63;;
68479;SDS011;55469;48.934;12.050;2023-07-08T04:17:21;4.35;;;3.40;;
68479;SDS011;55469;48.934;12.050;2023-07-08T04:19:48;4.20;;;3.20;;
68479;SDS011;55469;48.934;12.050;2023-07-08T04:22:14;3.53;;;2.78;;
68479;SDS011;55469;48.934;12.050;2023-07-08T04:32:02;3.63;;;3.10;;
68479;SDS011;55469;48.934;12.050;2023-07-08T04:38:13;3.63;;;3.10;;
68479;SDS011;55469;48.934;12.050;2023-07-08T04:40:46;4.40;;;3.20;;
68479;SDS011;55469;48.934;12.050;2023-07-08T04:43:13;4.43;;;3.20;;
68479;SDS011;55469;48.934;12.050;2023-07-08T04:45:39;4.07;;;3.20;;
68479;SDS011;55469;48.934;12.050;2023-07-08T04:48:16;4.13;;;3.30;;
68479;SDS011;55469;48.934;12.050;2023-07-08T04:50:46;3.58;;;2.97;;
68479;SDS011;55469;48.934;12.050;2023-07-08T04:53:16;3.83;;;3.28;;
68479;SDS011;55469;48.934;12.050;2023-07-08T04:55:44;4.15;;;3.30;;
68479;SDS011;55469;48.934;12.050;2023-07-08T04:58:13;4.25;;;3.28;;
68479;SDS011;55469;48.934;12.050;2023-07-08T05:00:39;4.88;;;3.40;;
68479;SDS011;55469;48.934;12.050;2023-07-08T05:06:45;4.00;;;3.03;;
68479;SDS011;55469;48.934;12.050;2023-07-08T05:09:12;4.15;;;3.13;;
68479;SDS011;55469;48.934;12.050;2023-07-08T05:15:18;4.57;;;3.38;;
68479;SDS011;55469;48.934;12.050;2023-07-08T05:21:25;4.03;;;3.08;;
68479;SDS011;55469;48.934;12.050;2023-07-08T05:30:26;4.45;;;3.45;;
68479;SDS011;55469;48.934;12.050;2023-07-08T05:32:52;3.92;;;3.13;;
68479;SDS011;55469;48.934;12.050;2023-07-08T05:39:06;4.57;;;3.33;;
68479;SDS011;55469;48.934;12.050;2023-07-08T05:41:31;4.57;;;3.30;;
68479;SDS011;55469;48.934;12.050;2023-07-08T05:43:57;4.68;;;3.58;;
68479;SDS011;55469;48.934;12.050;2023-07-08T05:50:03;4.05;;;3.38;;
68479;SDS011;55469;48.934;12.050;2023-07-08T05:52:30;4.55;;;3.35;;
68479;SDS011;55469;48.934;12.050;2023-07-08T05:54:55;5.05;;;3.05;;
68479;SDS011;55469;48.934;12.050;2023-07-08T05:57:21;4.88;;;3.38;;
68479;SDS011;55469;48.934;12.050;2023-07-08T06:03:29;5.47;;;3.45;;
68479;SDS011;55469;48.934;12.050;2023-07-08T06:09:36;5.07;;;3.08;;
68479;SDS011;55469;48.934;12.050;2023-07-08T06:12:01;6.03;;;3.47;;
68479;SDS011;55469;48.934;12.050;2023-07-08T06:14:28;5.07;;;3.30;;
68479;SDS011;55469;48.934;12.050;2023-07-08T06:19:32;4.63;;;3.25;;
68479;SDS011;55469;48.934;12.050;2023-07-08T06:21:58;4.88;;;3.50;;
68479;SDS011;55469;48.934;12.050;2023-07-08T06:24:24;3.60;;;3.10;;
68479;SDS011;55469;48.934;12.050;2023-07-08T06:33:26;5.78;;;3.35;;
68479;SDS011;55469;48.934;12.050;2023-07-08T06:35:52;5.72;;;3.50;;
68479;SDS011;55469;48.934;12.050;2023-07-08T06:38:18;4.50;;;2.90;;
68479;SDS011;55469;48.934;12.050;2023-07-08T06:40:44;4.63;;;3.13;;
68479;SDS011;55469;48.934;12.050;2023-07-08T06:43:09;5.28;;;3.80;;
68479;SDS011;55469;48.934;12.050;2023-07-08T06:49:15;3.95;;;3.20;;
68479;SDS011;55469;48.934;12.050;2023-07-08T06:55:23;5.72;;;3.20;;
68479;SDS011;55469;48.934;12.050;2023-07-08T06:57:49;3.55;;;2.95;;
68479;SDS011;55469;48.934;12.050;2023-07-08T07:00:15;3.92;;;3.10;;
68479;SDS011;55469;48.934;12.050;2023-07-08T07:02:40;3.95;;;3.00;;
68479;SDS011;55469;48.934;12.050;2023-07-08T07:05:06;3.92;;;3.20;;
68479;SDS011;55469;48.934;12.050;2023-07-08T07:07:32;4.80;;;3.30;;
68479;SDS011;55469;48.934;12.050;2023-07-08T07:09:59;3.80;;;3.10;;
68479;SDS011;55469;48.934;12.050;2023-07-08T07:12:26;6.03;;;3.20;;
68479;SDS011;55469;48.934;12.050;2023-07-08T07:14:52;3.97;;;2.90;;
68479;SDS011;55469;48.934;12.050;2023-07-08T07:20:58;4.13;;;3.38;;
68479;SDS011;55469;48.934;12.050;2023-07-08T07:27:05;3.40;;;3.05;;
68479;SDS011;55469;48.934;12.050;2023-07-08T07:29:49;3.25;;;2.75;;
68479;SDS011;55469;48.934;12.050;2023-07-08T07:32:16;3.15;;;2.60;;
68479;SDS011;55469;48.934;12.050;2023-07-08T07:34:46;4.35;;;2.88;;
68479;SDS011;55469;48.934;12.050;2023-07-08T07:37:13;4.05;;;2.85;;
68479;SDS011;55469;48.934;12.050;2023-07-08T07:39:40;4.00;;;2.90;;
68479;SDS011;55469;48.934;12.050;2023-07-08T07:42:06;3.88;;;2.92;;
68479;SDS011;55469;48.934;12.050;2023-07-08T07:44:33;4.15;;;3.08;;
68479;SDS011;55469;48.934;12.050;2023-07-08T07:46:59;3.30;;;3.00;;
68479;SDS011;55469;48.934;12.050;2023-07-08T07:49:25;3.10;;;2.70;;
68479;SDS011;55469;48.934;12.050;2023-07-08T07:51:50;3.92;;;2.80;;
68479;SDS011;55469;48.934;12.050;2023-07-08T08:01:42;4.25;;;2.80;;
68479;SDS011;55469;48.934;12.050;2023-07-08T08:04:09;3.20;;;2.65;;
68479;SDS011;55469;48.934;12.050;2023-07-08T08:06:38;3.53;;;2.97;;
68479;SDS011;55469;48.934;12.050;2023-07-08T08:09:04;2.95;;;2.47;;
68479;SDS011;55469;48.934;12.050;2023-07-08T08:11:31;3.22;;;2.70;;
68479;SDS011;55469;48.934;12.050;2023-07-08T08:14:00;3.75;;;2.90;;
68479;SDS011;55469;48.934;12.050;2023-07-08T08:16:29;3.80;;;3.00;;
68479;SDS011;55469;48.934;12.050;2023-07-08T08:18:55;3.05;;;2.63;;
68479;SDS011;55469;48.934;12.050;2023-07-08T08:21:21;3.63;;;2.58;;
68479;SDS011;55469;48.934;12.050;2023-07-08T08:23:47;3.70;;;2.63;;
68479;SDS011;55469;48.934;12.050;2023-07-08T08:26:13;3.30;;;2.95;;
68479;SDS011;55469;48.934;12.050;2023-07-08T08:28:39;3.92;;;2.90;;
68479;SDS011;55469;48.934;12.050;2023-07-08T08:31:05;4.07;;;2.75;;
68479;SDS011;55469;48.934;12.050;2023-07-08T08:33:30;4.25;;;3.05;;
68479;SDS011;55469;48.934;12.050;2023-07-08T08:35:56;3.42;;;2.92;;
68479;SDS011;55469;48.934;12.050;2023-07-08T08:38:22;3.30;;;2.70;;
68479;SDS011;55469;48.934;12.050;2023-07-08T08:40:47;3.88;;;2.70;;
68479;SDS011;55469;48.934;12.050;2023-07-08T08:43:15;4.45;;;2.95;;
68479;SDS011;55469;48.934;12.050;2023-07-08T08:48:27;3.03;;;2.72;;
68479;SDS011;55469;48.934;12.050;2023-07-08T08:50:59;3.38;;;2.83;;
68479;SDS011;55469;48.934;12.050;2023-07-08T08:53:39;3.55;;;2.65;;
68479;SDS011;55469;48.934;12.050;2023-07-08T08:56:23;3.38;;;2.50;;
68479;SDS011;55469;48.934;12.050;2023-07-08T09:02:23;3.28;;;2.53;;
68479;SDS011;55469;48.934;12.050;2023-07-08T09:05:08;3.03;;;2.53;;
68479;SDS011;55469;48.934;12.050;2023-07-08T09:08:20;4.45;;;2.83;;
68479;SDS011;55469;48.934;12.050;2023-07-08T09:13:29;3.90;;;2.58;;
68479;SDS011;55469;48.934;12.050;2023-07-08T09:16:10;3.83;;;2.90;;
68479;SDS011;55469;48.934;12.050;2023-07-08T09:21:36;3.80;;;2.92;;
68479;SDS011;55469;48.934;12.050;2023-07-08T09:24:10;3.13;;;2.78;;
68479;SDS011;55469;48.934;12.050;2023-07-08T09:26:50;2.90;;;2.55;;
68479;SDS011;55469;48.934;12.050;2023-07-08T09:29:17;3.45;;;2.78;;
68479;SDS011;55469;48.934;12.050;2023-07-08T09:31:43;3.92;;;2.60;;
68479;SDS011;55469;48.934;12.050;2023-07-08T09:34:10;3.05;;;2.60;;
68479;SDS011;55469;48.934;12.050;2023-07-08T09:36:41;3.17;;;2.42;;
68479;SDS011;55469;48.934;12.050;2023-07-08T09:39:10;3.33;;;2.65;;
68479;SDS011;55469;48.934;12.050;2023-07-08T09:41:39;3.63;;;2.92;;
68479;SDS011;55469;48.934;12.050;2023-07-08T09:47:00;2.88;;;2.40;;
68479;SDS011;55469;48.934;12.050;2023-07-08T09:49:33;3.20;;;2.58;;
68479;SDS011;55469;48.934;12.050;2023-07-08T09:52:00;3.33;;;2.90;;
68479;SDS011;55469;48.934;12.050;2023-07-08T09:54:28;3.13;;;2.55;;
68479;SDS011;55469;48.934;12.050;2023-07-08T09:59:32;2.88;;;2.50;;
68479;SDS011;55469;48.934;12.050;2023-07-08T10:05:27;3.53;;;3.00;;
68479;SDS011;55469;48.934;12.050;2023-07-08T10:07:59;4.13;;;2.90;;
68479;SDS011;55469;48.934;12.050;2023-07-08T10:10:35;3.25;;;2.75;;
68479;SDS011;55469;48.934;12.050;2023-07-08T10:13:12;3.20;;;2.60;;
68479;SDS011;55469;48.934;12.050;2023-07-08T10:15:55;2.78;;;2.42;;
68479;SDS011;55469;48.934;12.050;2023-07-08T10:37:46;4.25;;;2.58;;
68479;SDS011;55469;48.934;12.050;2023-07-08T11:07:56;3.25;;;2.70;;
68479;SDS011;55469;48.934;12.050;2023-07-08T11:10:29;3.05;;;2.75;;
68479;SDS011;55469;48.934;12.050;2023-07-08T11:13:03;3.63;;;2.60;;
68479;SDS011;55469;48.934;12.050;2023-07-08T11:18:15;3.20;;;2.60;;
68479;SDS011;55469;48.934;12.050;2023-07-08T11:20:57;2.63;;;2.35;;
68479;SDS011;55469;48.934;12.050;2023-07-08T11:26:20;3.60;;;2.53;;
68479;SDS011;55469;48.934;12.050;2023-07-08T11:28:59;2.70;;;2.50;;
68479;SDS011;55469;48.934;12.050;2023-07-08T11:31:27;3.00;;;2.60;;
68479;SDS011;55469;48.934;12.050;2023-07-08T11:33:56;2.88;;;2.45;;
68479;SDS011;55469;48.934;12.050;2023-07-08T11:36:23;3.17;;;2.83;;
68479;SDS011;55469;48.934;12.050;2023-07-08T11:38:50;3.35;;;2.60;;
68479;SDS011;55469;48.934;12.050;2023-07-08T11:41:20;3.88;;;2.90;;
68479;SDS011;55469;48.934;12.050;2023-07-08T11:43:50;3.72;;;2.65;;
68479;SDS011;55469;48.934;12.050;2023-07-08T11:46:23;5.82;;;2.60;;
68479;SDS011;55469;48.934;12.050;2023-07-08T11:48:53;3.58;;;2.58;;
68479;SDS011;55469;48.934;12.050;2023-07-08T11:51:32;3.15;;;2.78;;
68479;SDS011;55469;48.934;12.050;2023-07-08T11:56:28;3.45;;;2.50;;
68479;SDS011;55469;48.934;12.050;2023-07-08T11:59:32;3.00;;;2.53;;
68479;SDS011;55469;48.934;12.050;2023-07-08T12:02:04;3.15;;;2.72;;
68479;SDS011;55469;48.934;12.050;2023-07-08T12:07:46;3.35;;;2.63;;
68479;SDS011;55469;48.934;12.050;2023-07-08T12:13:00;4.28;;;2.72;;
68479;SDS011;55469;48.934;12.050;2023-07-08T12:15:28;3.63;;;2.88;;
68479;SDS011;55469;48.934;12.050;2023-07-08T12:18:06;3.33;;;2.90;;
68479;SDS011;55469;48.934;12.050;2023-07-08T12:20:38;2.47;;;2.28;;
68479;SDS011;55469;48.934;12.050;2023-07-08T12:23:13;4.13;;;2.70;;
68479;SDS011;55469;48.934;12.050;2023-07-08T12:28:52;2.85;;;2.55;;
68479;SDS011;55469;48.934;12.050;2023-07-08T12:34:58;3.08;;;2.60;;
68479;SDS011;55469;48.934;12.050;2023-07-08T12:37:24;3.47;;;2.67;;
68479;SDS011;55469;48.934;12.050;2023-07-08T12:39:57;3.47;;;2.75;;
68479;SDS011;55469;48.934;12.050;2023-07-08T12:42:30;2.90;;;2.50;;
68479;SDS011;55469;48.934;12.050;2023-07-08T12:44:56;3.38;;;2.97;;
68479;SDS011;55469;48.934;12.050;2023-07-08T12:47:22;3.88;;;2.90;;
68479;SDS011;55469;48.934;12.050;2023-07-08T12:49:48;3.53;;;2.72;;
68479;SDS011;55469;48.934;12.050;2023-07-08T12:52:22;3.97;;;2.83;;
68479;SDS011;55469;48.934;12.050;2023-07-08T12:54:49;3.97;;;2.80;;
68479;SDS011;55469;48.934;12.050;2023-07-08T12:57:18;3.13;;;2.60;;
68479;SDS011;55469;48.934;12.050;2023-07-08T12:59:44;2.92;;;2.60;;
68479;SDS011;55469;48.934;12.050;2023-07-08T13:02:17;2.70;;;2.38;;
68479;SDS011;55469;48.934;12.050;2023-07-08T13:04:49;3.22;;;2.53;;
68479;SDS011;55469;48.934;12.050;2023-07-08T13:07:32;3.15;;;2.70;;
68479;SDS011;55469;48.934;12.050;2023-07-08T13:10:02;3.03;;;2.60;;
68479;SDS011;55469;48.934;12.050;2023-07-08T13:12:40;2.95;;;2.55;;
68479;SDS011;55469;48.934;12.050;2023-07-08T13:15:29;3.35;;;3.00;;
68479;SDS011;55469;48.934;12.050;2023-07-08T13:17:59;3.53;;;2.70;;
68479;SDS011;55469;48.934;12.050;2023-07-08T13:20:27;3.58;;;2.80;;
68479;SDS011;55469;48.934;12.050;2023-07-08T13:23:00;3.35;;;2.70;;
68479;SDS011;55469;48.934;12.050;2023-07-08T13:25:28;4.22;;;2.63;;
68479;SDS011;55469;48.934;12.050;2023-07-08T13:28:00;3.65;;;2.92;;
68479;SDS011;55469;48.934;12.050;2023-07-08T13:30:48;3.50;;;2.97;;
68479;SDS011;55469;48.934;12.050;2023-07-08T13:33:20;3.33;;;2.90;;
68479;SDS011;55469;48.934;12.050;2023-07-08T13:35:46;2.75;;;2.47;;
68479;SDS011;55469;48.934;12.050;2023-07-08T13:38:16;3.03;;;2.63;;
68479;SDS011;55469;48.934;12.050;2023-07-08T13:40:55;2.95;;;2.63;;
68479;SDS011;55469;48.934;12.050;2023-07-08T13:43:25;3.30;;;2.60;;
68479;SDS011;55469;48.934;12.050;2023-07-08T13:45:53;2.47;;;2.20;;
68479;SDS011;55469;48.934;12.050;2023-07-08T13:48:22;3.08;;;2.75;;
68479;SDS011;55469;48.934;12.050;2023-07-08T13:51:17;3.90;;;2.60;;
68479;SDS011;55469;48.934;12.050;2023-07-08T13:53:47;2.58;;;2.38;;
68479;SDS011;55469;48.934;12.050;2023-07-08T13:56:22;2.92;;;2.38;;
68479;SDS011;55469;48.934;12.050;2023-07-08T13:59:00;3.75;;;2.65;;
68479;SDS011;55469;48.934;12.050;2023-07-08T14:01:35;4.32;;;2.70;;
68479;SDS011;55469;48.934;12.050;2023-07-08T14:04:04;3.05;;;2.45;;
68479;SDS011;55469;48.934;12.050;2023-07-08T14:06:33;3.22;;;2.65;;
68479;SDS011;55469;48.934;12.050;2023-07-08T14:09:14;2.92;;;2.47;;
68479;SDS011;55469;48.934;12.050;2023-07-08T14:11:45;2.83;;;2.50;;
68479;SDS011;55469;48.934;12.050;2023-07-08T14:14:14;3.22;;;2.90;;
68479;SDS011;55469;48.934;12.050;2023-07-08T14:16:43;3.97;;;2.78;;
68479;SDS011;55469;48.934;12.050;2023-07-08T14:19:22;2.75;;;2.45;;
68479;SDS011;55469;48.934;12.050;2023-07-08T14:21:51;2.67;;;2.35;;
68479;SDS011;55469;48.934;12.050;2023-07-08T14:24:21;3.20;;;2.53;;
68479;SDS011;55469;48.934;12.050;2023-07-08T14:26:47;3.22;;;2.85;;
68479;SDS011;55469;48.934;12.050;2023-07-08T14:29:13;4.50;;;3.10;;
68479;SDS011;55469;48.934;12.050;2023-07-08T14:31:39;3.53;;;2.83;;
68479;SDS011;55469;48.934;12.050;2023-07-08T14:34:07;3.13;;;2.80;;
68479;SDS011;55469;48.934;12.050;2023-07-08T14:36:48;3.28;;;2.60;;
68479;SDS011;55469;48.934;12.050;2023-07-08T14:39:15;3.38;;;2.80;;
68479;SDS011;55469;48.934;12.050;2023-07-08T14:41:42;3.20;;;2.53;;
68479;SDS011;55469;48.934;12.050;2023-07-08T14:44:24;3.17;;;2.55;;
68479;SDS011;55469;48.934;12.050;2023-07-08T14:46:56;3.40;;;2.70;;
68479;SDS011;55469;48.934;12.050;2023-07-08T14:49:23;2.83;;;2.53;;
68479;SDS011;55469;48.934;12.050;2023-07-08T14:51:49;3.60;;;2.90;;
68479;SDS011;55469;48.934;12.050;2023-07-08T14:54:17;3.20;;;2.65;;
68479;SDS011;55469;48.934;12.050;2023-07-08T14:56:44;5.13;;;2.63;;
68479;SDS011;55469;48.934;12.050;2023-07-08T14:59:13;3.65;;;2.72;;
68479;SDS011;55469;48.934;12.050;2023-07-08T15:01:44;3.53;;;3.05;;
68479;SDS011;55469;48.934;12.050;2023-07-08T15:04:13;3.47;;;2.70;;
68479;SDS011;55469;48.934;12.050;2023-07-08T15:06:42;3.30;;;2.80;;
68479;SDS011;55469;48.934;12.050;2023-07-08T15:09:08;3.45;;;2.60;;
68479;SDS011;55469;48.934;12.050;2023-07-08T15:11:36;3.20;;;2.72;;
68479;SDS011;55469;48.934;12.050;2023-07-08T15:14:03;3.25;;;2.90;;
68479;SDS011;55469;48.934;12.050;2023-07-08T15:16:34;3.72;;;2.95;;
68479;SDS011;55469;48.934;12.050;2023-07-08T15:19:00;3.08;;;2.55;;
68479;SDS011;55469;48.934;12.050;2023-07-08T15:21:26;2.67;;;2.47;;
68479;SDS011;55469;48.934;12.050;2023-07-08T15:23:52;4.15;;;3.00;;
68479;SDS011;55469;48.934;12.050;2023-07-08T15:26:18;3.95;;;2.88;;
68479;SDS011;55469;48.934;12.050;2023-07-08T15:28:48;2.70;;;2.35;;
68479;SDS011;55469;48.934;12.050;2023-07-08T15:31:16;3.55;;;2.38;;
68479;SDS011;55469;48.934;12.050;2023-07-08T15:33:49;3.35;;;2.75;;
68479;SDS011;55469;48.934;12.050;2023-07-08T15:36:18;3.38;;;2.60;;
68479;SDS011;55469;48.934;12.050;2023-07-08T15:38:44;3.33;;;2.60;;
68479;SDS011;55469;48.934;12.050;2023-07-08T15:41:12;3.13;;;2.58;;
68479;SDS011;55469;48.934;12.050;2023-07-08T15:43:47;2.95;;;2.45;;
68479;SDS011;55469;48.934;12.050;2023-07-08T15:46:14;5.25;;;3.10;;
68479;SDS011;55469;48.934;12.050;2023-07-08T15:48:41;3.05;;;2.75;;
68479;SDS011;55469;48.934;12.050;2023-07-08T15:51:07;3.05;;;2.60;;
68479;SDS011;55469;48.934;12.050;2023-07-08T15:53:41;3.70;;;2.83;;
68479;SDS011;55469;48.934;12.050;2023-07-08T15:56:11;3.22;;;2.80;;
68479;SDS011;55469;48.934;12.050;2023-07-08T15:58:40;3.20;;;2.80;;
68479;SDS011;55469;48.934;12.050;2023-07-08T16:01:12;3.28;;;2.78;;
68479;SDS011;55469;48.934;12.050;2023-07-08T16:03:45;3.75;;;2.90;;
68479;SDS011;55469;48.934;12.050;2023-07-08T16:06:11;3.80;;;2.90;;
68479;SDS011;55469;48.934;12.050;2023-07-08T16:08:37;3.08;;;2.63;;
68479;SDS011;55469;48.934;12.050;2023-07-08T16:11:04;3.90;;;2.60;;
68479;SDS011;55469;48.934;12.050;2023-07-08T16:13:37;3.85;;;2.50;;
68479;SDS011;55469;48.934;12.050;2023-07-08T16:16:04;3.03;;;2.67;;
68479;SDS011;55469;48.934;12.050;2023-07-08T16:18:31;2.95;;;2.58;;
68479;SDS011;55469;48.934;12.050;2023-07-08T16:20:57;3.03;;;2.45;;
68479;SDS011;55469;48.934;12.050;2023-07-08T16:23:22;4.03;;;2.75;;
68479;SDS011;55469;48.934;12.050;2023-07-08T16:25:50;3.00;;;2.53;;
68479;SDS011;55469;48.934;12.050;2023-07-08T16:31:16;4.35;;;2.80;;
68479;SDS011;55469;48.934;12.050;2023-07-08T16:33:53;3.10;;;2.40;;
68479;SDS011;55469;48.934;12.050;2023-07-08T16:36:24;3.00;;;2.60;;
68479;SDS011;55469;48.934;12.050;2023-07-08T16:38:52;2.85;;;2.55;;
68479;SDS011;55469;48.934;12.050;2023-07-08T16:41:23;2.63;;;2.33;;
68479;SDS011;55469;48.934;12.050;2023-07-08T16:43:59;2.83;;;2.33;;
68479;SDS011;55469;48.934;12.050;2023-07-08T16:49:24;3.00;;;2.65;;
68479;SDS011;55469;48.934;12.050;2023-07-08T16:51:49;3.33;;;2.58;;
68479;SDS011;55469;48.934;12.050;2023-07-08T16:54:16;7.60;;;2.53;;
68479;SDS011;55469;48.934;12.050;2023-07-08T16:56:43;3.13;;;2.40;;
68479;SDS011;55469;48.934;12.050;2023-07-08T16:59:12;3.35;;;2.50;;
68479;SDS011;55469;48.934;12.050;2023-07-08T17:01:40;2.60;;;2.40;;
68479;SDS011;55469;48.934;12.050;2023-07-08T17:07:47;2.90;;;2.63;;
68479;SDS011;55469;48.934;12.050;2023-07-08T17:10:14;2.95;;;2.50;;
68479;SDS011;55469;48.934;12.050;2023-07-08T17:12:52;3.10;;;2.40;;
68479;SDS011;55469;48.934;12.050;2023-07-08T17:15:19;3.83;;;2.60;;
68479;SDS011;55469;48.934;12.050;2023-07-08T17:17:55;2.67;;;2.47;;
68479;SDS011;55469;48.934;12.050;2023-07-08T17:20:24;2.70;;;2.40;;
68479;SDS011;55469;48.934;12.050;2023-07-08T17:23:11;2.53;;;2.25;;
68479;SDS011;55469;48.934;12.050;2023-07-08T17:25:41;3.00;;;2.40;;
68479;SDS011;55469;48.934;12.050;2023-07-08T17:28:07;2.80;;;2.55;;
68479;SDS011;55469;48.934;12.050;2023-07-08T17:30:33;3.20;;;2.88;;
68479;SDS011;55469;48.934;12.050;2023-07-08T17:32:59;2.97;;;2.60;;
68479;SDS011;55469;48.934;12.050;2023-07-08T17:35:27;2.92;;;2.50;;
68479;SDS011;55469;48.934;12.050;2023-07-08T17:37:53;2.70;;;2.47;;
68479;SDS011;55469;48.934;12.050;2023-07-08T17:40:21;2.72;;;2.53;;
68479;SDS011;55469;48.934;12.050;2023-07-08T17:42:50;2.70;;;2.38;;
68479;SDS011;55469;48.934;12.050;2023-07-08T17:45:19;4.00;;;2.70;;
68479;SDS011;55469;48.934;12.050;2023-07-08T17:47:53;3.50;;;2.60;;
68479;SDS011;55469;48.934;12.050;2023-07-08T17:50:20;2.38;;;2.17;;
68479;SDS011;55469;48.934;12.050;2023-07-08T17:52:49;3.03;;;2.60;;
68479;SDS011;55469;48.934;12.050;2023-07-08T17:55:19;2.60;;;2.40;;
68479;SDS011;55469;48.934;12.050;2023-07-08T17:57:46;2.55;;;2.28;;
68479;SDS011;55469;48.934;12.050;2023-07-08T18:00:18;2.45;;;2.25;;